sensor_id;sensor_type;location;lat;lon;timestamp;temperature;humidity
76878;DHT22;65843;50.692;12.844;2023-03-14T00:00:45;19.40;60.90
76878;DHT22;65843;50.692;12.844;2023-03-14T00:01:46;19.40;60.80
76878;DHT22;65843;50.692;12.844;2023-03-14T00:02:51;19.40;60.50
76878;DHT22;65843;50.692;12.844;2023-03-14T00:03:51;19.40;60.80
76878;DHT22;65843;50.692;12.844;2023-03-14T00:04:55;19.40;60.70
76878;DHT22;65843;50.692;12.844;2023-03-14T00:05:57;19.40;61.00
76878;DHT22;65843;50.692;12.844;2023-03-14T00:07:02;19.40;61.10
76878;DHT22;65843;50.692;12.844;2023-03-14T00:08:03;19.40;61.20
76878;DHT22;65843;50.692;12.844;2023-03-14T00:09:04;19.40;61.10
76878;DHT22;65843;50.692;12.844;2023-03-14T00:10:06;19.40;61.50
76878;DHT22;65843;50.692;12.844;2023-03-14T00:11:08;19.40;60.80
76878;DHT22;65843;50.692;12.844;2023-03-14T00:12:10;19.40;60.90
76878;DHT22;65843;50.692;12.844;2023-03-14T00:13:11;19.40;60.70
76878;DHT22;65843;50.692;12.844;2023-03-14T00:14:12;19.40;61.10
76878;DHT22;65843;50.692;12.844;2023-03-14T00:15:13;19.40;60.90
76878;DHT22;65843;50.692;12.844;2023-03-14T00:16:14;19.40;61.10
76878;DHT22;65843;50.692;12.844;2023-03-14T00:17:14;19.40;60.90
76878;DHT22;65843;50.692;12.844;2023-03-14T00:18:15;19.40;60.90
76878;DHT22;65843;50.692;12.844;2023-03-14T00:19:16;19.40;60.80
76878;DHT22;65843;50.692;12.844;2023-03-14T00:20:17;19.40;60.90
76878;DHT22;65843;50.692;12.844;2023-03-14T00:21:18;19.40;61.10
76878;DHT22;65843;50.692;12.844;2023-03-14T00:22:20;19.40;60.90
76878;DHT22;65843;50.692;12.844;2023-03-14T00:23:21;19.40;60.70
76878;DHT22;65843;50.692;12.844;2023-03-14T00:24:22;19.40;60.70
76878;DHT22;65843;50.692;12.844;2023-03-14T00:25:23;19.40;60.40
76878;DHT22;65843;50.692;12.844;2023-03-14T00:26:23;19.40;60.60
76878;DHT22;65843;50.692;12.844;2023-03-14T00:27:24;19.40;60.70
76878;DHT22;65843;50.692;12.844;2023-03-14T00:28:25;19.40;60.40
76878;DHT22;65843;50.692;12.844;2023-03-14T00:29:26;19.40;60.50
76878;DHT22;65843;50.692;12.844;2023-03-14T00:30:27;19.40;60.80
76878;DHT22;65843;50.692;12.844;2023-03-14T00:31:28;19.40;60.80
76878;DHT22;65843;50.692;12.844;2023-03-14T00:32:29;19.40;60.50
76878;DHT22;65843;50.692;12.844;2023-03-14T00:33:30;19.40;60.80
76878;DHT22;65843;50.692;12.844;2023-03-14T00:34:31;19.40;60.80
76878;DHT22;65843;50.692;12.844;2023-03-14T00:35:32;19.30;61.00
76878;DHT22;65843;50.692;12.844;2023-03-14T00:36:33;19.40;60.50
76878;DHT22;65843;50.692;12.844;2023-03-14T00:37:34;19.30;60.60
76878;DHT22;65843;50.692;12.844;2023-03-14T00:38:35;19.30;61.00
76878;DHT22;65843;50.692;12.844;2023-03-14T00:39:36;19.30;61.00
76878;DHT22;65843;50.692;12.844;2023-03-14T00:40:38;19.30;60.90
76878;DHT22;65843;50.692;12.844;2023-03-14T00:41:39;19.30;60.70
76878;DHT22;65843;50.692;12.844;2023-03-14T00:42:40;19.30;60.70
76878;DHT22;65843;50.692;12.844;2023-03-14T00:43:41;19.30;60.90
76878;DHT22;65843;50.692;12.844;2023-03-14T00:44:42;19.30;61.10
76878;DHT22;65843;50.692;12.844;2023-03-14T00:45:43;19.30;61.10
76878;DHT22;65843;50.692;12.844;2023-03-14T00:46:44;19.30;61.30
76878;DHT22;65843;50.692;12.844;2023-03-14T00:47:45;19.30;61.50
76878;DHT22;65843;50.692;12.844;2023-03-14T00:48:46;19.30;60.90
76878;DHT22;65843;50.692;12.844;2023-03-14T00:49:49;19.30;61.10
76878;DHT22;65843;50.692;12.844;2023-03-14T00:50:50;19.30;60.80
76878;DHT22;65843;50.692;12.844;2023-03-14T00:51:51;19.40;61.10
76878;DHT22;65843;50.692;12.844;2023-03-14T00:52:52;19.30;61.20
76878;DHT22;65843;50.692;12.844;2023-03-14T00:53:53;19.30;61.40
76878;DHT22;65843;50.692;12.844;2023-03-14T00:54:54;19.30;61.20
76878;DHT22;65843;50.692;12.844;2023-03-14T00:55:54;19.40;61.30
76878;DHT22;65843;50.692;12.844;2023-03-14T00:56:55;19.40;61.40
76878;DHT22;65843;50.692;12.844;2023-03-14T00:57:56;19.30;61.50
76878;DHT22;65843;50.692;12.844;2023-03-14T00:58:57;19.30;61.40
76878;DHT22;65843;50.692;12.844;2023-03-14T00:59:58;19.30;61.50
76878;DHT22;65843;50.692;12.844;2023-03-14T01:01:04;19.30;61.50
76878;DHT22;65843;50.692;12.844;2023-03-14T01:02:05;19.40;61.50
76878;DHT22;65843;50.692;12.844;2023-03-14T01:03:06;19.30;61.50
76878;DHT22;65843;50.692;12.844;2023-03-14T01:04:07;19.30;61.70
76878;DHT22;65843;50.692;12.844;2023-03-14T01:05:08;19.30;61.60
76878;DHT22;65843;50.692;12.844;2023-03-14T01:06:15;19.40;61.70
76878;DHT22;65843;50.692;12.844;2023-03-14T01:07:16;19.30;61.90
76878;DHT22;65843;50.692;12.844;2023-03-14T01:08:17;19.40;61.60
76878;DHT22;65843;50.692;12.844;2023-03-14T01:09:18;19.30;61.50
76878;DHT22;65843;50.692;12.844;2023-03-14T01:10:19;19.30;61.60
76878;DHT22;65843;50.692;12.844;2023-03-14T01:11:22;19.30;61.90
76878;DHT22;65843;50.692;12.844;2023-03-14T01:12:23;19.30;61.30
76878;DHT22;65843;50.692;12.844;2023-03-14T01:13:24;19.30;61.70
76878;DHT22;65843;50.692;12.844;2023-03-14T01:14:25;19.30;61.90
76878;DHT22;65843;50.692;12.844;2023-03-14T01:15:26;19.40;61.80
76878;DHT22;65843;50.692;12.844;2023-03-14T01:16:27;19.30;61.70
76878;DHT22;65843;50.692;12.844;2023-03-14T01:17:28;19.30;61.60
76878;DHT22;65843;50.692;12.844;2023-03-14T01:18:30;19.40;61.60
76878;DHT22;65843;50.692;12.844;2023-03-14T01:19:34;19.40;61.70
76878;DHT22;65843;50.692;12.844;2023-03-14T01:20:36;19.40;61.80
76878;DHT22;65843;50.692;12.844;2023-03-14T01:21:37;19.40;61.70
76878;DHT22;65843;50.692;12.844;2023-03-14T01:22:38;19.40;61.60
76878;DHT22;65843;50.692;12.844;2023-03-14T01:23:40;19.40;61.70
76878;DHT22;65843;50.692;12.844;2023-03-14T01:24:41;19.40;61.30
76878;DHT22;65843;50.692;12.844;2023-03-14T01:25:42;19.40;61.80
76878;DHT22;65843;50.692;12.844;2023-03-14T01:26:43;19.40;61.80
76878;DHT22;65843;50.692;12.844;2023-03-14T01:27:44;19.40;61.60
76878;DHT22;65843;50.692;12.844;2023-03-14T01:28:45;19.40;61.60
76878;DHT22;65843;50.692;12.844;2023-03-14T01:29:47;19.40;61.90
76878;DHT22;65843;50.692;12.844;2023-03-14T01:30:48;19.40;62.00
76878;DHT22;65843;50.692;12.844;2023-03-14T01:31:49;19.40;61.70
76878;DHT22;65843;50.692;12.844;2023-03-14T01:32:50;19.40;61.70
76878;DHT22;65843;50.692;12.844;2023-03-14T01:33:51;19.40;61.50
76878;DHT22;65843;50.692;12.844;2023-03-14T01:34:52;19.40;62.20
76878;DHT22;65843;50.692;12.844;2023-03-14T01:35:53;19.40;62.30
76878;DHT22;65843;50.692;12.844;2023-03-14T01:36:54;19.40;62.20
76878;DHT22;65843;50.692;12.844;2023-03-14T01:37:55;19.40;62.10
76878;DHT22;65843;50.692;12.844;2023-03-14T01:38:55;19.40;61.80
76878;DHT22;65843;50.692;12.844;2023-03-14T01:39:56;19.40;61.20
76878;DHT22;65843;50.692;12.844;2023-03-14T01:40:57;19.40;61.80
76878;DHT22;65843;50.692;12.844;2023-03-14T01:41:59;19.40;62.10
76878;DHT22;65843;50.692;12.844;2023-03-14T01:43:12;19.40;61.80
76878;DHT22;65843;50.692;12.844;2023-03-14T01:44:14;19.40;61.40
76878;DHT22;65843;50.692;12.844;2023-03-14T01:45:53;19.40;61.90
76878;DHT22;65843;50.692;12.844;2023-03-14T01:46:42;19.40;61.90
76878;DHT22;65843;50.692;12.844;2023-03-14T01:47:43;19.40;61.70
76878;DHT22;65843;50.692;12.844;2023-03-14T01:48:46;19.40;61.60
76878;DHT22;65843;50.692;12.844;2023-03-14T01:49:50;19.40;62.20
76878;DHT22;65843;50.692;12.844;2023-03-14T01:50:52;19.40;61.40
76878;DHT22;65843;50.692;12.844;2023-03-14T01:52:01;19.40;61.40
76878;DHT22;65843;50.692;12.844;2023-03-14T01:53:02;19.40;61.40
76878;DHT22;65843;50.692;12.844;2023-03-14T01:54:46;19.40;61.40
76878;DHT22;65843;50.692;12.844;2023-03-14T01:55:27;19.30;61.80
76878;DHT22;65843;50.692;12.844;2023-03-14T01:56:28;19.30;61.40
76878;DHT22;65843;50.692;12.844;2023-03-14T01:57:35;19.40;61.90
76878;DHT22;65843;50.692;12.844;2023-03-14T01:58:37;19.40;61.50
76878;DHT22;65843;50.692;12.844;2023-03-14T01:59:40;19.30;63.30
76878;DHT22;65843;50.692;12.844;2023-03-14T02:00:43;19.30;62.80
76878;DHT22;65843;50.692;12.844;2023-03-14T02:01:44;19.40;62.80
76878;DHT22;65843;50.692;12.844;2023-03-14T02:02:48;19.40;62.70
76878;DHT22;65843;50.692;12.844;2023-03-14T02:03:53;19.40;62.70
76878;DHT22;65843;50.692;12.844;2023-03-14T02:04:54;19.50;62.70
76878;DHT22;65843;50.692;12.844;2023-03-14T02:05:56;19.50;62.60
76878;DHT22;65843;50.692;12.844;2023-03-14T02:07:03;19.50;62.60
76878;DHT22;65843;50.692;12.844;2023-03-14T02:08:07;19.50;62.40
76878;DHT22;65843;50.692;12.844;2023-03-14T02:09:08;19.50;62.50
76878;DHT22;65843;50.692;12.844;2023-03-14T02:10:09;19.50;62.50
76878;DHT22;65843;50.692;12.844;2023-03-14T02:11:11;19.50;62.50
76878;DHT22;65843;50.692;12.844;2023-03-14T02:12:13;19.50;62.50
76878;DHT22;65843;50.692;12.844;2023-03-14T02:13:16;19.50;62.20
76878;DHT22;65843;50.692;12.844;2023-03-14T02:14:28;19.50;62.30
76878;DHT22;65843;50.692;12.844;2023-03-14T02:15:30;19.50;62.40
76878;DHT22;65843;50.692;12.844;2023-03-14T02:16:31;19.50;62.50
76878;DHT22;65843;50.692;12.844;2023-03-14T02:17:32;19.50;62.50
76878;DHT22;65843;50.692;12.844;2023-03-14T02:18:34;19.50;62.50
76878;DHT22;65843;50.692;12.844;2023-03-14T02:22:50;19.50;62.50
76878;DHT22;65843;50.692;12.844;2023-03-14T02:24:38;19.50;62.50
76878;DHT22;65843;50.692;12.844;2023-03-14T02:26:18;19.50;62.30
76878;DHT22;65843;50.692;12.844;2023-03-14T02:27:21;19.50;62.40
76878;DHT22;65843;50.692;12.844;2023-03-14T02:28:22;19.50;62.60
76878;DHT22;65843;50.692;12.844;2023-03-14T02:29:23;19.50;62.50
76878;DHT22;65843;50.692;12.844;2023-03-14T02:30:25;19.60;62.40
76878;DHT22;65843;50.692;12.844;2023-03-14T02:31:26;19.60;62.40
76878;DHT22;65843;50.692;12.844;2023-03-14T02:32:27;19.50;62.40
76878;DHT22;65843;50.692;12.844;2023-03-14T02:33:29;19.60;62.30
76878;DHT22;65843;50.692;12.844;2023-03-14T02:34:31;19.60;62.30
76878;DHT22;65843;50.692;12.844;2023-03-14T02:35:34;19.50;62.30
76878;DHT22;65843;50.692;12.844;2023-03-14T02:36:36;19.60;62.30
76878;DHT22;65843;50.692;12.844;2023-03-14T02:37:47;19.50;62.40
76878;DHT22;65843;50.692;12.844;2023-03-14T02:39:53;19.60;62.30
76878;DHT22;65843;50.692;12.844;2023-03-14T02:40:54;19.60;62.30
76878;DHT22;65843;50.692;12.844;2023-03-14T02:41:55;19.60;62.30
76878;DHT22;65843;50.692;12.844;2023-03-14T02:42:55;19.60;62.20
76878;DHT22;65843;50.692;12.844;2023-03-14T02:43:56;19.60;62.20
76878;DHT22;65843;50.692;12.844;2023-03-14T02:45:43;19.60;62.20
76878;DHT22;65843;50.692;12.844;2023-03-14T02:46:19;19.60;62.40
76878;DHT22;65843;50.692;12.844;2023-03-14T02:47:26;19.60;62.20
76878;DHT22;65843;50.692;12.844;2023-03-14T02:48:29;19.70;62.20
76878;DHT22;65843;50.692;12.844;2023-03-14T02:49:31;19.60;62.10
76878;DHT22;65843;50.692;12.844;2023-03-14T02:50:32;19.60;62.10
76878;DHT22;65843;50.692;12.844;2023-03-14T02:51:34;19.60;62.10
76878;DHT22;65843;50.692;12.844;2023-03-14T02:52:35;19.60;62.10
76878;DHT22;65843;50.692;12.844;2023-03-14T02:53:37;19.60;62.20
76878;DHT22;65843;50.692;12.844;2023-03-14T02:54:38;19.60;62.50
76878;DHT22;65843;50.692;12.844;2023-03-14T02:55:39;19.60;62.50
76878;DHT22;65843;50.692;12.844;2023-03-14T02:56:40;19.60;62.50
76878;DHT22;65843;50.692;12.844;2023-03-14T02:57:41;19.60;62.20
76878;DHT22;65843;50.692;12.844;2023-03-14T02:58:42;19.60;62.50
76878;DHT22;65843;50.692;12.844;2023-03-14T02:59:43;19.60;62.70
76878;DHT22;65843;50.692;12.844;2023-03-14T03:00:44;19.60;62.30
76878;DHT22;65843;50.692;12.844;2023-03-14T03:01:45;19.60;62.40
76878;DHT22;65843;50.692;12.844;2023-03-14T03:02:46;19.60;62.40
76878;DHT22;65843;50.692;12.844;2023-03-14T03:03:47;19.50;62.00
76878;DHT22;65843;50.692;12.844;2023-03-14T03:04:47;19.50;62.40
76878;DHT22;65843;50.692;12.844;2023-03-14T03:05:52;19.50;62.40
76878;DHT22;65843;50.692;12.844;2023-03-14T03:06:53;19.50;62.40
76878;DHT22;65843;50.692;12.844;2023-03-14T03:07:54;19.50;62.50
76878;DHT22;65843;50.692;12.844;2023-03-14T03:08:57;19.50;62.30
76878;DHT22;65843;50.692;12.844;2023-03-14T03:09:58;19.60;62.70
76878;DHT22;65843;50.692;12.844;2023-03-14T03:10:59;19.50;62.70
76878;DHT22;65843;50.692;12.844;2023-03-14T03:12:00;19.60;62.70
76878;DHT22;65843;50.692;12.844;2023-03-14T03:13:01;19.60;62.60
76878;DHT22;65843;50.692;12.844;2023-03-14T03:14:02;19.60;62.50
76878;DHT22;65843;50.692;12.844;2023-03-14T03:15:03;19.60;62.50
76878;DHT22;65843;50.692;12.844;2023-03-14T03:16:04;19.60;62.10
76878;DHT22;65843;50.692;12.844;2023-03-14T03:17:05;19.60;62.50
76878;DHT22;65843;50.692;12.844;2023-03-14T03:18:06;19.50;62.60
76878;DHT22;65843;50.692;12.844;2023-03-14T03:19:08;19.50;62.40
76878;DHT22;65843;50.692;12.844;2023-03-14T03:20:09;19.50;62.30
76878;DHT22;65843;50.692;12.844;2023-03-14T03:21:10;19.50;62.60
76878;DHT22;65843;50.692;12.844;2023-03-14T03:22:11;19.50;62.60
76878;DHT22;65843;50.692;12.844;2023-03-14T03:23:12;19.60;62.70
76878;DHT22;65843;50.692;12.844;2023-03-14T03:24:13;19.50;62.10
76878;DHT22;65843;50.692;12.844;2023-03-14T03:25:14;19.60;61.90
76878;DHT22;65843;50.692;12.844;2023-03-14T03:26:15;19.50;62.60
76878;DHT22;65843;50.692;12.844;2023-03-14T03:27:16;19.50;61.30
76878;DHT22;65843;50.692;12.844;2023-03-14T03:28:17;19.50;61.30
76878;DHT22;65843;50.692;12.844;2023-03-14T03:29:18;19.50;61.70
76878;DHT22;65843;50.692;12.844;2023-03-14T03:30:19;19.50;62.40
76878;DHT22;65843;50.692;12.844;2023-03-14T03:31:20;19.50;62.20
76878;DHT22;65843;50.692;12.844;2023-03-14T03:32:21;19.50;62.40
76878;DHT22;65843;50.692;12.844;2023-03-14T03:33:22;19.50;62.60
76878;DHT22;65843;50.692;12.844;2023-03-14T03:34:24;19.50;62.50
76878;DHT22;65843;50.692;12.844;2023-03-14T03:35:25;19.50;62.80
76878;DHT22;65843;50.692;12.844;2023-03-14T03:36:27;19.50;62.50
76878;DHT22;65843;50.692;12.844;2023-03-14T03:37:29;19.50;62.30
76878;DHT22;65843;50.692;12.844;2023-03-14T03:38:30;19.50;62.80
76878;DHT22;65843;50.692;12.844;2023-03-14T03:39:31;19.50;62.90
76878;DHT22;65843;50.692;12.844;2023-03-14T03:40:32;19.50;63.00
76878;DHT22;65843;50.692;12.844;2023-03-14T03:41:33;19.50;63.00
76878;DHT22;65843;50.692;12.844;2023-03-14T03:42:34;19.50;62.90
76878;DHT22;65843;50.692;12.844;2023-03-14T03:43:35;19.50;62.90
76878;DHT22;65843;50.692;12.844;2023-03-14T03:44:36;19.50;62.80
76878;DHT22;65843;50.692;12.844;2023-03-14T03:45:37;19.50;63.00
76878;DHT22;65843;50.692;12.844;2023-03-14T03:46:38;19.50;62.90
76878;DHT22;65843;50.692;12.844;2023-03-14T03:47:39;19.50;62.70
76878;DHT22;65843;50.692;12.844;2023-03-14T03:48:40;19.50;62.80
76878;DHT22;65843;50.692;12.844;2023-03-14T03:49:41;19.50;62.80
76878;DHT22;65843;50.692;12.844;2023-03-14T03:50:45;19.50;62.70
76878;DHT22;65843;50.692;12.844;2023-03-14T03:51:47;19.50;62.50
76878;DHT22;65843;50.692;12.844;2023-03-14T03:52:48;19.50;62.50
76878;DHT22;65843;50.692;12.844;2023-03-14T03:53:48;19.50;62.80
76878;DHT22;65843;50.692;12.844;2023-03-14T03:54:49;19.50;62.50
76878;DHT22;65843;50.692;12.844;2023-03-14T03:55:50;19.50;62.80
76878;DHT22;65843;50.692;12.844;2023-03-14T03:56:51;19.50;62.70
76878;DHT22;65843;50.692;12.844;2023-03-14T03:57:52;19.50;62.60
76878;DHT22;65843;50.692;12.844;2023-03-14T03:58:53;19.50;62.80
76878;DHT22;65843;50.692;12.844;2023-03-14T03:59:54;19.50;62.50
76878;DHT22;65843;50.692;12.844;2023-03-14T04:00:55;19.50;62.60
76878;DHT22;65843;50.692;12.844;2023-03-14T04:01:56;19.50;61.60
76878;DHT22;65843;50.692;12.844;2023-03-14T04:02:57;19.50;62.70
76878;DHT22;65843;50.692;12.844;2023-03-14T04:03:58;19.50;61.50
76878;DHT22;65843;50.692;12.844;2023-03-14T04:04:59;19.50;61.00
76878;DHT22;65843;50.692;12.844;2023-03-14T04:06:04;19.60;62.50
76878;DHT22;65843;50.692;12.844;2023-03-14T04:07:05;19.50;61.60
76878;DHT22;65843;50.692;12.844;2023-03-14T04:08:06;19.60;60.80
76878;DHT22;65843;50.692;12.844;2023-03-14T04:09:08;19.60;62.10
76878;DHT22;65843;50.692;12.844;2023-03-14T04:10:09;19.60;61.20
76878;DHT22;65843;50.692;12.844;2023-03-14T04:11:10;19.50;62.60
76878;DHT22;65843;50.692;12.844;2023-03-14T04:12:11;19.60;61.30
76878;DHT22;65843;50.692;12.844;2023-03-14T04:13:13;19.50;61.10
76878;DHT22;65843;50.692;12.844;2023-03-14T04:14:14;19.50;62.70
76878;DHT22;65843;50.692;12.844;2023-03-14T04:15:14;19.50;63.00
76878;DHT22;65843;50.692;12.844;2023-03-14T04:16:20;19.50;63.00
76878;DHT22;65843;50.692;12.844;2023-03-14T04:17:21;19.60;63.00
76878;DHT22;65843;50.692;12.844;2023-03-14T04:18:23;19.60;63.00
76878;DHT22;65843;50.692;12.844;2023-03-14T04:19:27;19.60;63.30
76878;DHT22;65843;50.692;12.844;2023-03-14T04:20:28;19.60;63.30
76878;DHT22;65843;50.692;12.844;2023-03-14T04:21:28;19.60;63.40
76878;DHT22;65843;50.692;12.844;2023-03-14T04:22:29;19.60;63.10
76878;DHT22;65843;50.692;12.844;2023-03-14T04:23:30;19.60;62.90
76878;DHT22;65843;50.692;12.844;2023-03-14T04:24:31;19.60;62.40
76878;DHT22;65843;50.692;12.844;2023-03-14T04:25:32;19.60;62.70
76878;DHT22;65843;50.692;12.844;2023-03-14T04:26:33;19.60;61.50
76878;DHT22;65843;50.692;12.844;2023-03-14T04:27:34;19.60;63.00
76878;DHT22;65843;50.692;12.844;2023-03-14T04:28:35;19.60;62.50
76878;DHT22;65843;50.692;12.844;2023-03-14T04:29:40;19.60;62.90
76878;DHT22;65843;50.692;12.844;2023-03-14T04:30:40;19.60;62.50
76878;DHT22;65843;50.692;12.844;2023-03-14T04:31:41;19.60;63.00
76878;DHT22;65843;50.692;12.844;2023-03-14T04:32:42;19.60;63.10
76878;DHT22;65843;50.692;12.844;2023-03-14T04:33:43;19.60;62.80
76878;DHT22;65843;50.692;12.844;2023-03-14T04:34:45;19.60;62.90
76878;DHT22;65843;50.692;12.844;2023-03-14T04:35:46;19.60;63.20
76878;DHT22;65843;50.692;12.844;2023-03-14T04:36:47;19.60;62.90
76878;DHT22;65843;50.692;12.844;2023-03-14T04:37:48;19.60;63.40
76878;DHT22;65843;50.692;12.844;2023-03-14T04:38:49;19.60;63.20
76878;DHT22;65843;50.692;12.844;2023-03-14T04:39:50;19.60;63.50
76878;DHT22;65843;50.692;12.844;2023-03-14T04:40:51;19.60;63.60
76878;DHT22;65843;50.692;12.844;2023-03-14T04:41:52;19.60;63.60
76878;DHT22;65843;50.692;12.844;2023-03-14T04:42:53;19.70;63.50
76878;DHT22;65843;50.692;12.844;2023-03-14T04:43:54;19.70;63.00
76878;DHT22;65843;50.692;12.844;2023-03-14T04:44:55;19.70;63.40
76878;DHT22;65843;50.692;12.844;2023-03-14T04:45:56;19.70;63.30
76878;DHT22;65843;50.692;12.844;2023-03-14T04:46:57;19.70;62.70
76878;DHT22;65843;50.692;12.844;2023-03-14T04:47:58;19.70;63.50
76878;DHT22;65843;50.692;12.844;2023-03-14T04:48:59;19.70;63.30
76878;DHT22;65843;50.692;12.844;2023-03-14T04:50:00;19.70;63.00
76878;DHT22;65843;50.692;12.844;2023-03-14T04:51:01;19.70;63.40
76878;DHT22;65843;50.692;12.844;2023-03-14T04:52:03;19.70;63.40
76878;DHT22;65843;50.692;12.844;2023-03-14T04:53:04;19.70;63.00
76878;DHT22;65843;50.692;12.844;2023-03-14T04:54:05;19.70;63.00
76878;DHT22;65843;50.692;12.844;2023-03-14T04:55:06;19.70;61.30
76878;DHT22;65843;50.692;12.844;2023-03-14T04:56:07;19.70;63.20
76878;DHT22;65843;50.692;12.844;2023-03-14T04:57:08;19.70;63.30
76878;DHT22;65843;50.692;12.844;2023-03-14T04:58:09;19.70;63.30
76878;DHT22;65843;50.692;12.844;2023-03-14T04:59:10;19.70;61.70
76878;DHT22;65843;50.692;12.844;2023-03-14T05:00:11;19.70;62.60
76878;DHT22;65843;50.692;12.844;2023-03-14T05:01:12;19.70;63.10
76878;DHT22;65843;50.692;12.844;2023-03-14T05:02:13;19.70;62.90
76878;DHT22;65843;50.692;12.844;2023-03-14T05:03:14;19.70;63.70
76878;DHT22;65843;50.692;12.844;2023-03-14T05:04:16;19.70;63.30
76878;DHT22;65843;50.692;12.844;2023-03-14T05:05:17;19.70;62.90
76878;DHT22;65843;50.692;12.844;2023-03-14T05:06:17;19.70;63.30
76878;DHT22;65843;50.692;12.844;2023-03-14T05:07:18;19.70;63.40
76878;DHT22;65843;50.692;12.844;2023-03-14T05:08:19;19.70;63.20
76878;DHT22;65843;50.692;12.844;2023-03-14T05:09:20;19.70;63.80
76878;DHT22;65843;50.692;12.844;2023-03-14T05:10:21;19.70;63.60
76878;DHT22;65843;50.692;12.844;2023-03-14T05:11:22;19.70;63.70
76878;DHT22;65843;50.692;12.844;2023-03-14T05:12:23;19.70;63.60
76878;DHT22;65843;50.692;12.844;2023-03-14T05:13:24;19.70;63.50
76878;DHT22;65843;50.692;12.844;2023-03-14T05:14:25;19.70;63.50
76878;DHT22;65843;50.692;12.844;2023-03-14T05:15:26;19.70;63.70
76878;DHT22;65843;50.692;12.844;2023-03-14T05:16:27;19.70;63.60
76878;DHT22;65843;50.692;12.844;2023-03-14T05:17:28;19.70;63.50
76878;DHT22;65843;50.692;12.844;2023-03-14T05:18:29;19.70;63.00
76878;DHT22;65843;50.692;12.844;2023-03-14T05:19:30;19.70;63.80
76878;DHT22;65843;50.692;12.844;2023-03-14T05:20:31;19.70;63.50
76878;DHT22;65843;50.692;12.844;2023-03-14T05:21:32;19.70;63.40
76878;DHT22;65843;50.692;12.844;2023-03-14T05:22:33;19.70;63.20
76878;DHT22;65843;50.692;12.844;2023-03-14T05:23:34;19.70;63.00
76878;DHT22;65843;50.692;12.844;2023-03-14T05:24:35;19.70;61.90
76878;DHT22;65843;50.692;12.844;2023-03-14T05:25:36;19.70;61.40
76878;DHT22;65843;50.692;12.844;2023-03-14T05:26:37;19.70;62.30
76878;DHT22;65843;50.692;12.844;2023-03-14T05:27:38;19.70;61.10
76878;DHT22;65843;50.692;12.844;2023-03-14T05:28:39;19.70;60.70
76878;DHT22;65843;50.692;12.844;2023-03-14T05:29:40;19.70;61.50
76878;DHT22;65843;50.692;12.844;2023-03-14T05:30:40;19.70;62.70
76878;DHT22;65843;50.692;12.844;2023-03-14T05:31:41;19.70;63.00
76878;DHT22;65843;50.692;12.844;2023-03-14T05:32:42;19.70;61.90
76878;DHT22;65843;50.692;12.844;2023-03-14T05:33:43;19.70;62.10
76878;DHT22;65843;50.692;12.844;2023-03-14T05:34:44;19.70;60.70
76878;DHT22;65843;50.692;12.844;2023-03-14T05:35:45;19.70;61.30
76878;DHT22;65843;50.692;12.844;2023-03-14T05:36:46;19.70;60.40
76878;DHT22;65843;50.692;12.844;2023-03-14T05:37:47;19.70;60.20
76878;DHT22;65843;50.692;12.844;2023-03-14T05:38:48;19.70;60.00
76878;DHT22;65843;50.692;12.844;2023-03-14T05:39:49;19.70;59.50
76878;DHT22;65843;50.692;12.844;2023-03-14T05:40:50;19.70;58.80
76878;DHT22;65843;50.692;12.844;2023-03-14T05:41:51;19.70;58.30
76878;DHT22;65843;50.692;12.844;2023-03-14T05:42:54;19.60;57.60
76878;DHT22;65843;50.692;12.844;2023-03-14T05:43:55;19.50;56.90
76878;DHT22;65843;50.692;12.844;2023-03-14T05:44:56;19.50;57.20
76878;DHT22;65843;50.692;12.844;2023-03-14T05:45:57;19.50;57.20
76878;DHT22;65843;50.692;12.844;2023-03-14T05:46:58;19.50;57.10
76878;DHT22;65843;50.692;12.844;2023-03-14T05:48:00;19.50;56.80
76878;DHT22;65843;50.692;12.844;2023-03-14T05:49:01;19.40;57.10
76878;DHT22;65843;50.692;12.844;2023-03-14T05:50:02;19.40;57.00
76878;DHT22;65843;50.692;12.844;2023-03-14T05:51:03;19.40;57.00
76878;DHT22;65843;50.692;12.844;2023-03-14T05:52:04;19.40;56.90
76878;DHT22;65843;50.692;12.844;2023-03-14T05:53:05;19.30;57.00
76878;DHT22;65843;50.692;12.844;2023-03-14T05:54:06;19.30;56.90
76878;DHT22;65843;50.692;12.844;2023-03-14T05:55:08;19.30;56.90
76878;DHT22;65843;50.692;12.844;2023-03-14T05:56:09;19.30;56.50
76878;DHT22;65843;50.692;12.844;2023-03-14T05:57:10;19.30;57.10
76878;DHT22;65843;50.692;12.844;2023-03-14T05:58:11;19.20;57.30
76878;DHT22;65843;50.692;12.844;2023-03-14T05:59:11;19.20;57.30
76878;DHT22;65843;50.692;12.844;2023-03-14T06:00:14;19.20;57.20
76878;DHT22;65843;50.692;12.844;2023-03-14T06:01:15;19.30;57.10
76878;DHT22;65843;50.692;12.844;2023-03-14T06:02:16;19.30;57.10
76878;DHT22;65843;50.692;12.844;2023-03-14T06:03:17;19.30;57.10
76878;DHT22;65843;50.692;12.844;2023-03-14T06:04:18;19.30;57.20
76878;DHT22;65843;50.692;12.844;2023-03-14T06:05:19;19.30;57.10
76878;DHT22;65843;50.692;12.844;2023-03-14T06:06:20;19.30;57.30
76878;DHT22;65843;50.692;12.844;2023-03-14T06:07:21;19.30;57.20
76878;DHT22;65843;50.692;12.844;2023-03-14T06:08:22;19.30;57.10
76878;DHT22;65843;50.692;12.844;2023-03-14T06:09:23;19.30;57.20
76878;DHT22;65843;50.692;12.844;2023-03-14T06:10:24;19.30;57.20
76878;DHT22;65843;50.692;12.844;2023-03-14T06:11:25;19.30;57.10
76878;DHT22;65843;50.692;12.844;2023-03-14T06:12:25;19.30;57.10
76878;DHT22;65843;50.692;12.844;2023-03-14T06:13:27;19.30;57.10
76878;DHT22;65843;50.692;12.844;2023-03-14T06:14:27;19.30;57.20
76878;DHT22;65843;50.692;12.844;2023-03-14T06:15:28;19.30;56.90
76878;DHT22;65843;50.692;12.844;2023-03-14T06:16:29;19.30;57.10
76878;DHT22;65843;50.692;12.844;2023-03-14T06:17:32;19.30;57.00
76878;DHT22;65843;50.692;12.844;2023-03-14T06:18:33;19.30;57.00
76878;DHT22;65843;50.692;12.844;2023-03-14T06:19:34;19.30;57.00
76878;DHT22;65843;50.692;12.844;2023-03-14T06:20:35;19.30;56.90
76878;DHT22;65843;50.692;12.844;2023-03-14T06:21:36;19.30;56.90
76878;DHT22;65843;50.692;12.844;2023-03-14T06:22:37;19.30;56.80
76878;DHT22;65843;50.692;12.844;2023-03-14T06:23:40;19.30;56.80
76878;DHT22;65843;50.692;12.844;2023-03-14T06:24:41;19.30;56.70
76878;DHT22;65843;50.692;12.844;2023-03-14T06:25:42;19.30;56.80
76878;DHT22;65843;50.692;12.844;2023-03-14T06:26:42;19.20;56.50
76878;DHT22;65843;50.692;12.844;2023-03-14T06:27:43;19.30;56.60
76878;DHT22;65843;50.692;12.844;2023-03-14T06:28:44;19.20;56.50